Time,TemperatureF,DewpointF,PressureIn,WindDirection,WindDirectionDegrees,WindSpeedMPH,WindSpeedGustMPH,Humidity,HourlyPrecipIn,Conditions,Clouds,dailyrainin,SoftwareType,DateUTC
2013-01-29 00:03:00,36.0,16.2,29.78,SSW,202,4.0,4.0,44,0.00,,---,0.00,VWS V14.01,2013-01-29 07:03:00,
2013-01-29 00:08:00,35.8,16.0,29.78,South,180,2.2,2.2,44,0.00,,---,0.00,VWS V14.01,2013-01-29 07:08:00,
2013-01-29 00:13:00,35.8,15.5,29.78,SW,225,6.5,6.5,43,0.00,,---,0.00,VWS V14.01,2013-01-29 07:13:00,
2013-01-29 00:18:00,35.8,16.0,29.79,SSW,202,4.3,4.3,44,0.00,,---,0.00,VWS V14.01,2013-01-29 07:18:00,
2013-01-29 00:23:00,35.6,15.9,29.78,South,180,4.7,4.7,44,0.00,,---,0.00,VWS V14.01,2013-01-29 07:23:00,
2013-01-29 00:28:00,35.6,16.4,29.78,SSE,158,4.0,4.0,45,0.00,,---,0.00,VWS V14.01,2013-01-29 07:28:00,
2013-01-29 00:33:00,35.5,16.8,29.78,SSW,202,3.8,3.8,46,0.00,,---,0.00,VWS V14.01,2013-01-29 07:33:00,
2013-01-29 00:38:00,35.3,16.6,29.78,South,180,3.4,3.4,46,0.00,,---,0.00,VWS V14.01,2013-01-29 07:38:00,
2013-01-29 00:43:00,35.1,16.9,29.78,SSE,158,3.4,3.4,47,0.00,,---,0.00,VWS V14.01,2013-01-29 07:43:00,
2013-01-29 00:48:00,35.1,16.9,29.78,South,180,1.8,1.8,47,0.00,,---,0.00,VWS V14.01,2013-01-29 07:48:00,
2013-01-29 00:53:00,34.9,17.2,29.78,SSW,202,2.0,2.0,48,0.00,,---,0.00,VWS V14.01,2013-01-29 07:53:00,
2013-01-29 00:58:00,34.9,17.2,29.78,SSW,202,4.7,4.7,48,0.00,,---,0.00,VWS V14.01,2013-01-29 07:58:00,
2013-01-29 01:03:00,34.7,17.0,29.77,SSW,202,5.1,5.1,48,0.00,,---,0.00,VWS V14.01,2013-01-29 08:03:00,
2013-01-29 01:08:00,34.6,17.4,29.77,SW,225,4.5,4.7,49,0.00,,---,0.00,VWS V14.01,2013-01-29 08:08:00,
2013-01-29 01:13:00,34.4,17.2,29.77,SW,225,5.4,5.4,49,0.00,,---,0.00,VWS V14.01,2013-01-29 08:13:00,
2013-01-29 01:18:00,34.2,17.0,29.77,South,180,4.3,4.3,49,0.00,,---,0.00,VWS V14.01,2013-01-29 08:18:00,
2013-01-29 01:23:00,34.2,16.6,29.76,SW,225,6.3,6.3,48,0.00,,---,0.00,VWS V14.01,2013-01-29 08:23:00,
2013-01-29 01:28:00,34.2,16.6,29.76,SW,225,6.5,6.5,48,0.00,,---,0.00,VWS V14.01,2013-01-29 08:28:00,
2013-01-29 01:33:00,34.2,17.0,29.76,WSW,248,4.0,4.0,49,0.00,,---,0.00,VWS V14.01,2013-01-29 08:33:00,
2013-01-29 01:38:00,34.2,16.6,29.75,South,180,3.4,3.4,48,0.00,,---,0.00,VWS V14.01,2013-01-29 08:38:00,
2013-01-29 01:43:00,34.2,16.6,29.75,SSE,158,0.4,0.4,48,0.00,,---,0.00,VWS V14.01,2013-01-29 08:43:00,
2013-01-29 01:48:00,34.0,16.4,29.75,SSE,158,1.6,1.6,48,0.00,,---,0.00,VWS V14.01,2013-01-29 08:48:00,
2013-01-29 01:53:00,34.0,16.4,29.75,South,180,1.8,1.8,48,0.00,,---,0.00,VWS V14.01,2013-01-29 08:53:00,
2013-01-29 01:58:00,34.0,15.9,29.75,SSE,158,4.0,4.0,47,0.00,,---,0.00,VWS V14.01,2013-01-29 08:58:00,
2013-01-29 02:03:00,34.0,16.4,29.75,South,180,1.8,1.8,48,0.00,,---,0.00,VWS V14.01,2013-01-29 09:03:00,
2013-01-29 02:08:00,33.8,16.2,29.74,SSW,202,4.5,4.5,48,0.00,,---,0.00,VWS V14.01,2013-01-29 09:08:00,
2013-01-29 02:13:00,33.7,16.1,29.74,South,180,2.7,2.7,48,0.00,,---,0.00,VWS V14.01,2013-01-29 09:13:00,
2013-01-29 02:18:00,33.7,16.6,29.74,SSW,202,2.5,2.5,49,0.00,,---,0.00,VWS V14.01,2013-01-29 09:18:00,
2013-01-29 02:23:00,33.5,16.4,29.74,SSW,202,3.4,3.4,49,0.00,,---,0.00,VWS V14.01,2013-01-29 09:23:00,
2013-01-29 02:28:00,33.5,16.4,29.74,SSW,202,5.4,5.4,49,0.00,,---,0.00,VWS V14.01,2013-01-29 09:28:00,
2013-01-29 02:33:00,33.5,16.9,29.73,SSW,202,1.8,1.8,50,0.00,,---,0.00,VWS V14.01,2013-01-29 09:33:00,
2013-01-29 02:38:00,33.3,16.2,29.73,SSW,202,2.0,2.0,49,0.00,,---,0.00,VWS V14.01,2013-01-29 09:38:00,
2013-01-29 02:43:00,33.3,16.2,29.73,SW,225,3.1,3.1,49,0.00,,---,0.00,VWS V14.01,2013-01-29 09:43:00,
2013-01-29 02:48:00,33.3,16.7,29.73,SW,225,1.1,1.1,50,0.00,,---,0.00,VWS V14.01,2013-01-29 09:48:00,
2013-01-29 02:53:00,33.1,16.5,29.74,SW,225,5.4,5.4,50,0.00,,---,0.00,VWS V14.01,2013-01-29 09:53:00,
2013-01-29 02:58:00,33.1,16.5,29.74,SSW,202,1.6,1.6,50,0.00,,---,0.00,VWS V14.01,2013-01-29 09:58:00,
2013-01-29 03:03:00,33.1,16.5,29.74,South,180,1.3,1.3,50,0.00,,---,0.00,VWS V14.01,2013-01-29 10:03:00,
2013-01-29 03:08:00,32.9,16.3,29.74,SSW,202,1.1,1.1,50,0.00,,---,0.00,VWS V14.01,2013-01-29 10:08:00,
2013-01-29 03:13:00,32.8,16.2,29.74,SSW,202,1.1,1.1,50,0.00,,---,0.00,VWS V14.01,2013-01-29 10:13:00,
2013-01-29 03:18:00,32.8,16.2,29.74,SSW,202,0.0,0.0,50,0.00,,---,0.00,VWS V14.01,2013-01-29 10:18:00,
2013-01-29 03:23:00,32.8,16.7,29.74,SW,225,1.8,1.8,51,0.00,,---,0.00,VWS V14.01,2013-01-29 10:23:00,
2013-01-29 03:28:00,32.8,16.7,29.73,SW,225,2.0,2.0,51,0.00,,---,0.00,VWS V14.01,2013-01-29 10:28:00,
2013-01-29 03:33:00,32.8,16.7,29.73,SSW,202,2.5,2.5,51,0.00,,---,0.00,VWS V14.01,2013-01-29 10:33:00,
2013-01-29 03:38:00,32.8,16.7,29.72,South,180,2.5,2.5,51,0.00,,---,0.00,VWS V14.01,2013-01-29 10:38:00,
2013-01-29 03:43:00,32.6,16.5,29.72,SW,225,4.7,4.7,51,0.00,,---,0.00,VWS V14.01,2013-01-29 10:43:00,
2013-01-29 03:48:00,32.6,16.9,29.72,SW,225,2.7,2.7,52,0.00,,---,0.00,VWS V14.01,2013-01-29 10:48:00,
2013-01-29 03:53:00,32.6,16.9,29.73,SSW,202,8.1,8.1,52,0.00,,---,0.00,VWS V14.01,2013-01-29 10:53:00,
2013-01-29 03:58:00,32.4,16.8,29.72,South,180,1.3,1.3,52,0.00,,---,0.00,VWS V14.01,2013-01-29 10:58:00,
2013-01-29 04:03:00,32.4,16.8,29.72,WSW,248,4.7,4.7,52,0.00,,---,0.00,VWS V14.01,2013-01-29 11:03:00,
2013-01-29 04:08:00,32.2,17.0,29.72,SSW,202,0.4,0.4,53,0.00,,---,0.00,VWS V14.01,2013-01-29 11:08:00,
2013-01-29 04:13:00,32.0,16.8,29.72,WSW,248,2.0,2.0,53,0.00,,---,0.00,VWS V14.01,2013-01-29 11:13:00,
2013-01-29 04:17:00,32.0,17.2,29.72,SSW,202,1.1,1.1,54,0.00,,---,0.00,VWS V14.01,2013-01-29 11:17:00,
2013-01-29 04:22:00,32.0,17.2,29.71,SSW,202,0.4,0.4,54,0.00,,---,0.00,VWS V14.01,2013-01-29 11:22:00,
2013-01-29 04:27:00,31.9,17.2,29.71,SSW,202,1.8,1.8,54,0.00,,---,0.00,VWS V14.01,2013-01-29 11:27:00,
2013-01-29 04:32:00,31.9,17.2,29.71,SW,225,1.1,1.1,54,0.00,,---,0.00,VWS V14.01,2013-01-29 11:32:00,
2013-01-29 04:38:00,31.7,17.4,29.71,South,180,1.1,1.1,55,0.00,,---,0.00,VWS V14.01,2013-01-29 11:38:00,
2013-01-29 04:43:00,31.7,17.4,29.71,South,180,1.3,1.3,55,0.00,,---,0.01,VWS V14.01,2013-01-29 11:43:00,
2013-01-29 04:48:00,31.7,17.4,29.71,SW,225,2.5,2.5,55,0.00,,---,0.00,VWS V14.01,2013-01-29 11:48:00,
2013-01-29 04:52:00,31.7,17.4,29.70,SSE,158,2.5,2.5,55,0.00,,---,0.00,VWS V14.01,2013-01-29 11:52:00,
2013-01-29 04:57:00,31.7,17.8,29.70,SSW,202,6.3,6.3,56,0.00,,---,0.00,VWS V14.01,2013-01-29 11:57:00,
2013-01-29 05:02:00,31.7,17.8,29.70,South,180,2.5,2.5,56,0.00,,---,0.00,VWS V14.01,2013-01-29 12:02:00,
2013-01-29 05:07:00,31.7,17.8,29.70,SSW,202,1.1,1.1,56,0.00,,---,0.00,VWS V14.01,2013-01-29 12:07:00,
2013-01-29 05:12:00,31.5,18.0,29.70,SSW,202,2.9,2.9,57,0.00,,---,0.00,VWS V14.01,2013-01-29 12:12:00,
2013-01-29 05:17:00,31.5,18.0,29.70,SW,225,6.9,6.9,57,0.00,,---,0.00,VWS V14.01,2013-01-29 12:17:00,
2013-01-29 05:22:00,31.3,17.9,29.70,SW,225,3.4,3.4,57,0.00,,---,0.00,VWS V14.01,2013-01-29 12:22:00,
2013-01-29 05:27:00,31.3,17.9,29.70,SSW,202,4.0,4.0,57,0.00,,---,0.00,VWS V14.01,2013-01-29 12:27:00,
2013-01-29 05:32:00,31.1,17.7,29.70,SSW,202,2.5,2.5,57,0.00,,---,0.00,VWS V14.01,2013-01-29 12:32:00,
2013-01-29 05:37:00,31.1,17.7,29.69,WSW,248,1.8,1.8,57,0.00,,---,0.00,VWS V14.01,2013-01-29 12:37:00,
2013-01-29 05:42:00,31.1,17.7,29.69,SW,225,5.1,5.1,57,0.00,,---,0.00,VWS V14.01,2013-01-29 12:42:00,
2013-01-29 05:47:00,31.0,17.6,29.69,SW,225,8.3,8.3,57,0.00,,---,0.00,VWS V14.01,2013-01-29 12:47:00,
2013-01-29 05:52:00,31.0,17.6,29.69,WSW,248,4.3,4.3,57,0.00,,---,0.00,VWS V14.01,2013-01-29 12:52:00,
2013-01-29 05:57:00,30.8,17.4,29.69,SW,225,3.4,3.4,57,0.00,,---,0.00,VWS V14.01,2013-01-29 12:57:00,
2013-01-29 06:02:00,30.6,17.2,29.69,SSW,202,4.0,4.0,57,0.00,,---,0.00,VWS V14.01,2013-01-29 13:02:00,
2013-01-29 06:07:00,30.6,17.6,29.69,SW,225,4.5,4.5,58,0.00,,---,0.00,VWS V14.01,2013-01-29 13:07:00,
2013-01-29 06:12:00,30.4,17.4,29.69,SW,225,4.0,4.0,58,0.00,,---,0.00,VWS V14.01,2013-01-29 13:12:00,
2013-01-29 06:17:00,30.4,17.4,29.69,SSW,202,6.3,6.3,58,0.00,,---,0.00,VWS V14.01,2013-01-29 13:17:00,
2013-01-29 06:22:00,30.4,17.4,29.69,SW,225,4.0,4.0,58,0.00,,---,0.00,VWS V14.01,2013-01-29 13:22:00,
2013-01-29 06:27:00,30.2,17.2,29.69,SSW,202,1.1,1.1,58,0.00,,---,0.00,VWS V14.01,2013-01-29 13:27:00,
2013-01-29 06:32:00,30.1,17.1,29.69,SSW,202,6.0,6.0,58,0.00,,---,0.00,VWS V14.01,2013-01-29 13:32:00,
2013-01-29 06:37:00,30.1,17.5,29.69,SSW,202,2.7,2.7,59,0.00,,---,0.00,VWS V14.01,2013-01-29 13:37:00,
2013-01-29 06:42:00,29.9,17.7,29.69,SW,225,2.2,2.2,60,0.00,,---,0.00,VWS V14.01,2013-01-29 13:42:00,
2013-01-29 06:47:00,29.9,18.1,29.69,SW,225,1.1,1.1,61,0.00,,---,0.00,VWS V14.01,2013-01-29 13:47:00,
2013-01-29 06:52:00,29.7,17.9,29.69,SW,225,3.8,3.8,61,0.00,,---,0.00,VWS V14.01,2013-01-29 13:52:00,
2013-01-29 06:57:00,29.7,18.3,29.70,South,180,5.6,5.6,62,0.00,,---,0.00,VWS V14.01,2013-01-29 13:57:00,
2013-01-29 07:02:00,29.7,18.3,29.70,SSW,202,3.6,3.6,62,0.00,,---,0.00,VWS V14.01,2013-01-29 14:02:00,
2013-01-29 07:07:00,29.5,18.5,29.70,West,270,1.3,1.3,63,0.00,,---,0.00,VWS V14.01,2013-01-29 14:07:00,
2013-01-29 07:12:00,29.3,18.6,29.70,SW,225,3.8,3.8,64,0.00,,---,0.00,VWS V14.01,2013-01-29 14:12:00,
2013-01-29 07:17:00,29.5,19.2,29.70,SSW,202,3.4,3.4,65,0.00,,---,0.00,VWS V14.01,2013-01-29 14:17:00,
2013-01-29 07:22:00,29.3,19.0,29.70,SW,225,4.3,4.3,65,0.00,,---,0.00,VWS V14.01,2013-01-29 14:22:00,
2013-01-29 07:27:00,29.3,19.4,29.70,SSW,202,1.1,1.1,66,0.00,,---,0.00,VWS V14.01,2013-01-29 14:27:00,
2013-01-29 07:32:00,29.5,19.6,29.70,SSW,202,4.0,4.0,66,0.00,,---,0.00,VWS V14.01,2013-01-29 14:32:00,
2013-01-29 07:37:00,29.2,18.9,29.70,South,180,0.0,0.0,65,0.00,,---,0.00,VWS V14.01,2013-01-29 14:37:00,
2013-01-29 07:42:00,29.3,19.4,29.70,SSE,158,0.7,0.7,66,0.00,,---,0.00,VWS V14.01,2013-01-29 14:42:00,
2013-01-29 07:47:00,29.3,19.4,29.70,South,180,0.7,0.7,66,0.00,,---,0.00,VWS V14.01,2013-01-29 14:47:00,
2013-01-29 07:52:00,29.3,19.4,29.70,South,180,0.4,0.4,66,0.00,,---,0.00,VWS V14.01,2013-01-29 14:52:00,
2013-01-29 07:57:00,29.3,19.4,29.70,SW,225,0.0,0.0,66,0.00,,---,0.00,VWS V14.01,2013-01-29 14:57:00,
2013-01-29 08:02:00,29.5,19.6,29.71,SW,225,2.0,2.0,66,0.00,,---,0.00,VWS V14.01,2013-01-29 15:02:00,
2013-01-29 08:07:00,29.7,19.8,29.71,South,180,0.7,0.7,66,0.00,,---,0.00,VWS V14.01,2013-01-29 15:07:00,
2013-01-29 08:12:00,29.5,19.9,29.71,SSW,202,1.6,1.6,67,0.00,,---,0.00,VWS V14.01,2013-01-29 15:12:00,
2013-01-29 08:17:00,29.2,20.0,29.71,South,180,2.2,2.2,68,0.00,,---,0.00,VWS V14.01,2013-01-29 15:17:00,
2013-01-29 08:22:00,29.2,20.3,29.71,SSW,202,0.9,0.9,69,0.00,,---,0.00,VWS V14.01,2013-01-29 15:22:00,
2013-01-29 08:27:00,29.3,20.4,29.71,WSW,248,0.4,0.4,69,0.00,,---,0.00,VWS V14.01,2013-01-29 15:27:00,
2013-01-29 08:32:00,29.5,20.6,29.70,SW,225,1.8,1.8,69,0.00,,---,0.00,VWS V14.01,2013-01-29 15:32:00,
2013-01-29 08:37:00,29.7,20.1,29.70,WSW,248,2.9,2.9,67,0.00,,---,0.00,VWS V14.01,2013-01-29 15:37:00,
2013-01-29 08:42:00,29.9,19.9,29.70,WSW,248,0.2,0.2,66,0.00,,---,0.00,VWS V14.01,2013-01-29 15:42:00,
2013-01-29 08:47:00,29.9,20.6,29.71,SW,225,4.0,4.0,68,0.00,,---,0.00,VWS V14.01,2013-01-29 15:47:00,
2013-01-29 08:52:00,29.9,20.6,29.71,SW,225,3.4,3.4,68,0.00,,---,0.00,VWS V14.01,2013-01-29 15:52:00,
2013-01-29 08:57:00,29.9,19.9,29.71,WSW,248,3.8,3.8,66,0.00,,---,0.00,VWS V14.01,2013-01-29 15:57:00,
2013-01-29 09:02:00,29.9,19.6,29.72,WSW,248,4.0,4.0,65,0.00,,---,0.00,VWS V14.01,2013-01-29 16:02:00,
2013-01-29 09:07:00,30.1,19.0,29.71,WSW,248,4.9,4.9,63,0.00,,---,0.00,VWS V14.01,2013-01-29 16:07:00,
2013-01-29 09:12:00,30.2,18.8,29.71,West,270,4.3,4.3,62,0.00,,---,0.00,VWS V14.01,2013-01-29 16:12:00,
2013-01-29 09:17:00,30.4,19.0,29.71,WNW,292,5.8,5.8,62,0.00,,---,0.00,VWS V14.01,2013-01-29 16:17:00,
2013-01-29 09:22:00,30.6,16.8,29.71,WNW,292,9.2,9.2,56,0.00,,---,0.00,VWS V14.01,2013-01-29 16:22:00,
2013-01-29 09:27:00,30.2,15.6,29.71,NNW,338,8.3,8.3,54,0.00,,---,0.00,VWS V14.01,2013-01-29 16:27:00,
2013-01-29 09:32:00,30.6,15.1,29.72,NW,315,11.0,11.0,52,0.00,,---,0.00,VWS V14.01,2013-01-29 16:32:00,
2013-01-29 09:37:00,30.6,15.1,29.71,WNW,292,6.5,6.5,52,0.00,,---,0.00,VWS V14.01,2013-01-29 16:37:00,
2013-01-29 09:42:00,30.6,14.6,29.71,WNW,292,5.8,5.8,51,0.00,,---,0.00,VWS V14.01,2013-01-29 16:42:00,
2013-01-29 09:47:00,30.6,14.6,29.70,North,0,6.9,6.9,51,0.00,,---,0.00,VWS V14.01,2013-01-29 16:47:00,
2013-01-29 09:52:00,30.6,15.1,29.70,WNW,292,6.3,6.3,52,0.00,,---,0.00,VWS V14.01,2013-01-29 16:52:00,
2013-01-29 09:57:00,30.6,13.7,29.71,NNW,338,9.4,9.4,49,0.00,,---,0.00,VWS V14.01,2013-01-29 16:57:00,
2013-01-29 10:02:00,30.8,13.9,29.71,West,270,6.5,6.5,49,0.00,,---,0.00,VWS V14.01,2013-01-29 17:02:00,
2013-01-29 10:07:00,31.0,11.7,29.71,NW,315,9.4,9.4,44,0.00,,---,0.00,VWS V14.01,2013-01-29 17:07:00,
2013-01-29 10:12:00,30.8,10.4,29.72,NW,315,6.9,6.9,42,0.00,,---,0.00,VWS V14.01,2013-01-29 17:12:00,
2013-01-29 10:17:00,30.8,11.0,29.71,WNW,292,9.2,9.2,43,0.00,,---,0.00,VWS V14.01,2013-01-29 17:17:00,
2013-01-29 10:22:00,30.8,11.5,29.71,WNW,292,8.1,8.1,44,0.00,,---,0.00,VWS V14.01,2013-01-29 17:22:00,
2013-01-29 10:27:00,30.8,11.5,29.71,West,270,11.2,11.2,44,0.00,,---,0.00,VWS V14.01,2013-01-29 17:27:00,
2013-01-29 10:32:00,31.0,13.1,29.71,West,270,6.3,6.3,47,0.00,,---,0.00,VWS V14.01,2013-01-29 17:32:00,
2013-01-29 10:37:00,30.8,13.9,29.71,WNW,292,9.8,9.8,49,0.00,,---,0.00,VWS V14.01,2013-01-29 17:37:00,
2013-01-29 10:42:00,30.8,12.5,29.72,NNW,338,8.3,8.3,46,0.00,,---,0.00,VWS V14.01,2013-01-29 17:42:00,
2013-01-29 10:47:00,30.8,13.9,29.71,NNW,338,7.8,7.8,49,0.00,,---,0.00,VWS V14.01,2013-01-29 17:47:00,
2013-01-29 10:52:00,31.0,12.7,29.71,West,270,6.0,6.0,46,0.00,,---,0.00,VWS V14.01,2013-01-29 17:52:00,
2013-01-29 10:57:00,31.1,13.7,29.71,NW,315,13.4,13.4,48,0.00,,---,0.00,VWS V14.01,2013-01-29 17:57:00,
2013-01-29 11:02:00,31.1,14.2,29.71,WNW,292,11.2,11.2,49,0.00,,---,0.00,VWS V14.01,2013-01-29 18:02:00,
2013-01-29 11:07:00,31.3,15.3,29.72,WNW,292,8.7,8.7,51,0.00,,---,0.00,VWS V14.01,2013-01-29 18:07:00,
2013-01-29 11:12:00,30.6,17.6,29.72,NNW,338,7.6,7.6,58,0.00,,---,0.00,VWS V14.01,2013-01-29 18:12:00,
2013-01-29 11:17:00,30.4,18.2,29.72,NW,315,7.6,7.6,60,0.00,,---,0.00,VWS V14.01,2013-01-29 18:17:00,
2013-01-29 11:22:00,30.1,17.5,29.72,ENE,68,6.9,6.9,59,0.00,,---,0.00,VWS V14.01,2013-01-29 18:22:00,
2013-01-29 11:27:00,29.9,16.9,29.72,WNW,292,6.9,6.9,58,0.00,,---,0.00,VWS V14.01,2013-01-29 18:27:00,
2013-01-29 11:32:00,30.2,17.2,29.72,NNW,338,6.3,6.3,58,0.00,,---,0.00,VWS V14.01,2013-01-29 18:32:00,
2013-01-29 11:37:00,29.9,16.5,29.72,WNW,292,9.2,9.2,57,0.00,,---,0.00,VWS V14.01,2013-01-29 18:37:00,
2013-01-29 11:42:00,30.6,15.1,29.71,WNW,292,8.3,8.3,52,0.00,,---,0.00,VWS V14.01,2013-01-29 18:42:00,
2013-01-29 11:47:00,31.9,14.0,29.72,NNW,338,8.5,8.5,47,0.00,,---,0.00,VWS V14.01,2013-01-29 18:47:00,
2013-01-29 11:52:00,31.3,13.4,29.72,NW,315,8.3,8.3,47,0.00,,---,0.00,VWS V14.01,2013-01-29 18:52:00,
2013-01-29 11:57:00,31.3,11.9,29.71,NNW,338,14.1,14.1,44,0.00,,---,0.00,VWS V14.01,2013-01-29 18:57:00,
2013-01-29 12:02:00,31.3,11.9,29.70,NNW,338,10.3,10.3,44,0.00,,---,0.00,VWS V14.01,2013-01-29 19:02:00,
2013-01-29 12:07:00,31.0,11.7,29.70,NW,315,11.6,11.6,44,0.00,,---,0.00,VWS V14.01,2013-01-29 19:07:00,
2013-01-29 12:12:00,30.6,11.3,29.71,NNW,338,11.2,11.2,44,0.00,,---,0.00,VWS V14.01,2013-01-29 19:12:00,
2013-01-29 12:17:00,31.5,11.1,29.70,North,0,9.2,9.2,42,0.00,,---,0.00,VWS V14.01,2013-01-29 19:17:00,
2013-01-29 12:22:00,30.8,11.0,29.70,WNW,292,11.0,11.0,43,0.00,,---,0.00,VWS V14.01,2013-01-29 19:22:00,
2013-01-29 12:27:00,30.8,11.0,29.70,NW,315,11.6,11.6,43,0.00,,---,0.00,VWS V14.01,2013-01-29 19:27:00,
2013-01-29 12:32:00,30.8,9.9,29.70,WNW,292,12.8,12.8,41,0.00,,---,0.00,VWS V14.01,2013-01-29 19:32:00,
2013-01-29 12:37:00,30.8,8.8,29.70,NW,315,11.4,11.4,39,0.00,,---,0.00,VWS V14.01,2013-01-29 19:37:00,
2013-01-29 12:42:00,31.1,7.9,29.70,NNW,338,14.3,14.3,37,0.00,,---,0.00,VWS V14.01,2013-01-29 19:42:00,
2013-01-29 12:47:00,31.0,8.4,29.70,NW,315,13.6,13.6,38,0.00,,---,0.00,VWS V14.01,2013-01-29 19:47:00,
2013-01-29 12:52:00,31.0,7.8,29.70,NW,315,12.5,12.5,37,0.00,,---,0.00,VWS V14.01,2013-01-29 19:52:00,
2013-01-29 12:57:00,31.3,6.8,29.69,NW,315,10.7,10.7,35,0.00,,---,0.00,VWS V14.01,2013-01-29 19:57:00,
2013-01-29 13:02:00,31.3,6.2,29.69,NNW,338,14.1,14.1,34,0.00,,---,0.00,VWS V14.01,2013-01-29 20:02:00,
2013-01-29 13:07:00,31.3,5.6,29.70,NW,315,12.5,12.5,33,0.00,,---,0.00,VWS V14.01,2013-01-29 20:07:00,
2013-01-29 13:12:00,31.7,5.9,29.70,NW,315,12.8,12.8,33,0.00,,---,0.00,VWS V14.01,2013-01-29 20:12:00,
2013-01-29 13:17:00,31.3,4.9,29.70,WNW,292,24.6,24.6,32,0.00,,---,0.00,VWS V14.01,2013-01-29 20:17:00,
2013-01-29 13:22:00,31.5,5.1,29.70,NW,315,11.9,11.9,32,0.00,,---,0.00,VWS V14.01,2013-01-29 20:22:00,
2013-01-29 13:27:00,31.3,4.2,29.70,WNW,292,8.7,8.7,31,0.00,,---,0.00,VWS V14.01,2013-01-29 20:27:00,
2013-01-29 13:32:00,31.3,4.9,29.70,West,270,14.3,14.3,32,0.00,,---,0.00,VWS V14.01,2013-01-29 20:32:00,
2013-01-29 13:37:00,31.3,5.6,29.70,NNW,338,9.8,9.8,33,0.00,,---,0.00,VWS V14.01,2013-01-29 20:37:00,
2013-01-29 13:42:00,32.2,5.7,29.70,NW,315,6.3,6.3,32,0.00,,---,0.00,VWS V14.01,2013-01-29 20:42:00,
2013-01-29 13:47:00,31.3,3.5,29.70,NNW,338,11.0,11.0,30,0.00,,---,0.00,VWS V14.01,2013-01-29 20:47:00,
2013-01-29 13:52:00,31.1,3.3,29.70,WNW,292,19.2,19.2,30,0.00,,---,0.00,VWS V14.01,2013-01-29 20:52:00,
2013-01-29 13:57:00,30.6,3.6,29.70,NW,315,13.4,13.4,31,0.00,,---,0.00,VWS V14.01,2013-01-29 20:57:00,
2013-01-29 14:02:00,30.4,2.7,29.70,WNW,292,12.8,12.8,30,0.00,,---,0.00,VWS V14.01,2013-01-29 21:02:00,
2013-01-29 14:07:00,31.0,3.9,29.70,NE,45,3.4,3.4,31,0.00,,---,0.00,VWS V14.01,2013-01-29 21:07:00,
2013-01-29 14:12:00,30.8,2.3,29.70,NW,315,14.8,14.8,29,0.00,,---,0.00,VWS V14.01,2013-01-29 21:12:00,
2013-01-29 14:17:00,30.4,2.7,29.71,West,270,19.5,19.5,30,0.00,,---,0.01,VWS V14.01,2013-01-29 21:17:00,
2013-01-29 14:22:00,30.6,3.6,29.70,North,0,13.4,13.4,31,0.00,,---,0.00,VWS V14.01,2013-01-29 21:22:00,
2013-01-29 14:27:00,30.8,3.0,29.71,NNE,22,9.4,9.4,30,0.00,,---,0.00,VWS V14.01,2013-01-29 21:27:00,
2013-01-29 14:32:00,30.6,2.9,29.71,WNW,292,20.6,20.6,30,0.00,,---,0.00,VWS V14.01,2013-01-29 21:32:00,
2013-01-29 14:37:00,30.8,3.8,29.71,West,270,12.5,12.5,31,0.00,,---,0.00,VWS V14.01,2013-01-29 21:37:00,
2013-01-29 14:42:00,31.3,3.5,29.70,WNW,292,7.4,7.4,30,0.00,,---,0.00,VWS V14.01,2013-01-29 21:42:00,
2013-01-29 14:47:00,31.5,1.4,29.71,NNW,338,16.1,16.1,27,0.00,,---,0.00,VWS V14.01,2013-01-29 21:47:00,
2013-01-29 14:52:00,31.5,2.2,29.71,WNW,292,15.2,15.2,28,0.00,,---,0.00,VWS V14.01,2013-01-29 21:52:00,
2013-01-29 14:57:00,31.7,2.3,29.70,NNW,338,20.1,20.1,28,0.00,,---,0.00,VWS V14.01,2013-01-29 21:57:00,
2013-01-29 15:02:00,31.7,2.3,29.71,NW,315,15.4,15.4,28,0.00,,---,0.00,VWS V14.01,2013-01-29 22:02:00,
2013-01-29 15:07:00,32.0,1.0,29.71,NW,315,17.0,17.0,26,0.00,,---,0.00,VWS V14.01,2013-01-29 22:07:00,
2013-01-29 15:12:00,31.9,-0.8,29.71,NNW,338,15.9,15.9,24,0.00,,---,0.00,VWS V14.01,2013-01-29 22:12:00,
2013-01-29 15:17:00,32.2,-0.5,29.71,NW,315,11.6,11.6,24,0.00,,---,0.00,VWS V14.01,2013-01-29 22:17:00,
2013-01-29 15:21:00,32.0,0.2,29.72,NNW,338,10.5,10.5,25,0.00,,---,0.00,VWS V14.01,2013-01-29 22:21:00,
2013-01-29 15:26:00,32.2,-0.5,29.71,West,270,17.9,17.9,24,0.00,,---,0.00,VWS V14.01,2013-01-29 22:26:00,
2013-01-29 15:31:00,32.4,1.4,29.71,WNW,292,14.3,14.3,26,0.00,,---,0.00,VWS V14.01,2013-01-29 22:31:00,
2013-01-29 15:36:00,32.0,1.0,29.72,NNW,338,15.9,15.9,26,0.00,,---,0.00,VWS V14.01,2013-01-29 22:36:00,
2013-01-29 15:41:00,32.4,1.4,29.72,NW,315,14.3,14.3,26,0.00,,---,0.00,VWS V14.01,2013-01-29 22:41:00,
2013-01-29 15:46:00,32.4,1.4,29.72,NW,315,8.5,8.5,26,0.00,,---,0.00,VWS V14.01,2013-01-29 22:46:00,
2013-01-29 15:51:00,32.4,-0.3,29.73,NW,315,10.7,10.7,24,0.00,,---,0.00,VWS V14.01,2013-01-29 22:51:00,
2013-01-29 15:56:00,32.6,-0.2,29.73,West,270,12.8,12.8,24,0.00,,---,0.00,VWS V14.01,2013-01-29 22:56:00,
2013-01-29 16:01:00,32.2,1.2,29.73,NW,315,10.3,10.3,26,0.00,,---,0.00,VWS V14.01,2013-01-29 23:01:00,
2013-01-29 16:06:00,32.0,1.8,29.73,North,0,9.8,9.8,27,0.00,,---,0.00,VWS V14.01,2013-01-29 23:06:00,
2013-01-29 16:11:00,33.1,2.8,29.73,NW,315,8.5,8.5,27,0.00,,---,0.00,VWS V14.01,2013-01-29 23:11:00,
2013-01-29 16:16:00,33.7,2.5,29.73,NW,315,6.3,6.3,26,0.00,,---,0.00,VWS V14.01,2013-01-29 23:16:00,
2013-01-29 16:21:00,32.9,1.8,29.74,WNW,292,17.9,17.9,26,0.00,,---,0.00,VWS V14.01,2013-01-29 23:21:00,
2013-01-29 16:26:00,32.8,2.5,29.73,WSW,248,13.4,13.4,27,0.00,,---,0.00,VWS V14.01,2013-01-29 23:26:00,
2013-01-29 16:31:00,33.1,2.8,29.73,North,0,15.0,15.0,27,0.00,,---,0.00,VWS V14.01,2013-01-29 23:31:00,
2013-01-29 16:36:00,32.0,2.6,29.73,WNW,292,14.5,14.5,28,0.00,,---,0.00,VWS V14.01,2013-01-29 23:36:00,
2013-01-29 16:41:00,32.2,3.5,29.73,NNW,338,7.6,7.6,29,0.00,,---,0.00,VWS V14.01,2013-01-29 23:41:00,
2013-01-29 16:46:00,32.9,4.1,29.73,NNW,338,14.1,14.1,29,0.00,,---,0.00,VWS V14.01,2013-01-29 23:46:00,
2013-01-29 16:51:00,32.6,4.6,29.74,NNW,338,15.4,15.4,30,0.00,,---,0.00,VWS V14.01,2013-01-29 23:51:00,
2013-01-29 16:56:00,32.6,4.6,29.75,NW,315,13.6,13.6,30,0.00,,---,0.00,VWS V14.01,2013-01-29 23:56:00,
2013-01-29 17:01:00,32.4,2.9,29.75,NNW,338,7.4,7.4,28,0.00,,---,0.00,VWS V14.01,2013-01-30 00:01:00,
2013-01-29 17:06:00,32.2,2.8,29.75,NW,315,17.9,17.9,28,0.00,,---,0.00,VWS V14.01,2013-01-30 00:06:00,
2013-01-29 17:11:00,31.7,3.1,29.75,WNW,292,17.4,17.4,29,0.00,,---,0.00,VWS V14.01,2013-01-30 00:11:00,
2013-01-29 17:16:00,31.0,3.2,29.75,NNW,338,13.0,13.0,30,0.00,,---,0.00,VWS V14.01,2013-01-30 00:16:00,
2013-01-29 17:21:00,30.6,4.9,29.76,WNW,292,10.5,10.5,33,0.00,,---,0.00,VWS V14.01,2013-01-30 00:21:00,
2013-01-29 17:26:00,30.6,4.9,29.75,NNW,338,6.9,6.9,33,0.00,,---,0.00,VWS V14.01,2013-01-30 00:26:00,
2013-01-29 17:31:00,30.4,4.8,29.75,NW,315,13.9,13.9,33,0.00,,---,0.00,VWS V14.01,2013-01-30 00:31:00,
2013-01-29 17:36:00,30.2,5.2,29.76,WSW,248,7.6,7.6,34,0.00,,---,0.00,VWS V14.01,2013-01-30 00:36:00,
2013-01-29 17:41:00,30.2,5.9,29.76,NW,315,8.7,8.7,35,0.00,,---,0.00,VWS V14.01,2013-01-30 00:41:00,
2013-01-29 17:46:00,30.1,6.4,29.77,WNW,292,7.4,7.4,36,0.00,,---,0.00,VWS V14.01,2013-01-30 00:46:00,
2013-01-29 17:51:00,29.9,6.8,29.77,NW,315,12.5,12.5,37,0.00,,---,0.00,VWS V14.01,2013-01-30 00:51:00,
2013-01-29 17:56:00,29.9,6.2,29.77,NW,315,6.9,6.9,36,0.00,,---,0.00,VWS V14.01,2013-01-30 00:56:00,
2013-01-29 18:01:00,29.7,6.0,29.77,NNW,338,8.9,8.9,36,0.00,,---,0.00,VWS V14.01,2013-01-30 01:01:00,
2013-01-29 18:06:00,29.7,6.0,29.78,WNW,292,8.3,8.3,36,0.00,,---,0.00,VWS V14.01,2013-01-30 01:06:00,
2013-01-29 18:11:00,29.5,6.4,29.78,NW,315,5.6,5.6,37,0.00,,---,0.00,VWS V14.01,2013-01-30 01:11:00,
2013-01-29 18:16:00,29.5,6.4,29.78,WNW,292,6.9,6.9,37,0.00,,---,0.00,VWS V14.01,2013-01-30 01:16:00,
2013-01-29 18:21:00,29.5,6.4,29.79,NW,315,7.2,7.2,37,0.00,,---,0.00,VWS V14.01,2013-01-30 01:21:00,
2013-01-29 18:26:00,29.5,6.4,29.78,WNW,292,6.3,6.3,37,0.00,,---,0.00,VWS V14.01,2013-01-30 01:26:00,
2013-01-29 18:31:00,29.5,6.4,29.79,WNW,292,11.6,11.6,37,0.00,,---,0.00,VWS V14.01,2013-01-30 01:31:00,
2013-01-29 18:36:00,29.5,6.4,29.79,NNW,338,4.0,4.0,37,0.00,,---,0.00,VWS V14.01,2013-01-30 01:36:00,
2013-01-29 18:41:00,29.7,6.6,29.79,NNW,338,6.3,6.3,37,0.00,,---,0.00,VWS V14.01,2013-01-30 01:41:00,
2013-01-29 18:46:00,29.5,7.0,29.80,NW,315,8.5,8.5,38,0.00,,---,0.00,VWS V14.01,2013-01-30 01:46:00,
2013-01-29 18:51:00,29.5,7.0,29.80,WNW,292,6.3,6.3,38,0.00,,---,0.00,VWS V14.01,2013-01-30 01:51:00,
2013-01-29 18:56:00,29.5,7.0,29.80,NW,315,4.7,4.7,38,0.00,,---,0.00,VWS V14.01,2013-01-30 01:56:00,
2013-01-29 19:01:00,29.5,7.0,29.80,WNW,292,9.2,9.2,38,0.00,,---,0.00,VWS V14.01,2013-01-30 02:01:00,
2013-01-29 19:06:00,29.5,7.6,29.81,NW,315,7.8,7.8,39,0.00,,---,0.00,VWS V14.01,2013-01-30 02:06:00,
2013-01-29 19:11:00,29.3,7.4,29.81,NW,315,9.2,9.2,39,0.00,,---,0.00,VWS V14.01,2013-01-30 02:11:00,
2013-01-29 19:16:00,29.3,7.4,29.81,WNW,292,6.7,6.7,39,0.00,,---,0.00,VWS V14.01,2013-01-30 02:16:00,
2013-01-29 19:21:00,29.3,8.0,29.81,NW,315,3.4,3.4,40,0.00,,---,0.00,VWS V14.01,2013-01-30 02:21:00,
2013-01-29 19:26:00,29.2,8.4,29.81,NNW,338,6.9,6.9,41,0.00,,---,0.00,VWS V14.01,2013-01-30 02:26:00,
2013-01-29 19:31:00,29.2,8.4,29.82,NNW,338,3.6,3.6,41,0.00,,---,0.00,VWS V14.01,2013-01-30 02:31:00,
2013-01-29 19:36:00,29.2,9.0,29.82,WNW,292,6.7,6.7,42,0.00,,---,0.00,VWS V14.01,2013-01-30 02:36:00,
2013-01-29 19:41:00,29.2,9.0,29.82,NW,315,7.6,7.6,42,0.00,,---,0.00,VWS V14.01,2013-01-30 02:41:00,
2013-01-29 19:46:00,29.0,8.8,29.82,NNW,338,7.4,7.4,42,0.00,,---,0.00,VWS V14.01,2013-01-30 02:46:00,
2013-01-29 19:51:00,28.8,9.1,29.82,NNW,338,5.6,5.6,43,0.00,,---,0.00,VWS V14.01,2013-01-30 02:51:00,
2013-01-29 19:56:00,28.8,9.1,29.83,NNE,22,3.1,3.1,43,0.00,,---,0.00,VWS V14.01,2013-01-30 02:56:00,
2013-01-29 20:01:00,28.6,9.5,29.83,NW,315,8.5,8.5,44,0.00,,---,0.00,VWS V14.01,2013-01-30 03:01:00,
2013-01-29 20:06:00,28.6,9.5,29.83,WSW,248,6.9,6.9,44,0.00,,---,0.00,VWS V14.01,2013-01-30 03:06:00,
2013-01-29 20:11:00,28.6,9.5,29.83,NNE,22,4.7,4.7,44,0.00,,---,0.00,VWS V14.01,2013-01-30 03:11:00,
2013-01-29 20:16:00,28.6,9.5,29.83,North,0,4.9,4.9,44,0.00,,---,0.00,VWS V14.01,2013-01-30 03:16:00,
2013-01-29 20:21:00,28.6,9.5,29.83,North,0,4.3,4.3,44,0.00,,---,0.00,VWS V14.01,2013-01-30 03:21:00,
2013-01-29 20:26:00,28.6,10.0,29.83,NE,45,8.3,8.3,45,0.00,,---,0.00,VWS V14.01,2013-01-30 03:26:00,
2013-01-29 20:31:00,28.6,10.0,29.84,NE,45,5.4,5.4,45,0.00,,---,0.00,VWS V14.01,2013-01-30 03:31:00,
2013-01-29 20:36:00,28.6,10.0,29.84,NNE,22,6.9,6.9,45,0.00,,---,0.00,VWS V14.01,2013-01-30 03:36:00,
2013-01-29 20:41:00,28.6,10.5,29.84,North,0,10.5,10.5,46,0.00,,---,0.00,VWS V14.01,2013-01-30 03:41:00,
2013-01-29 20:46:00,28.4,10.3,29.85,North,0,9.8,9.8,46,0.00,,---,0.00,VWS V14.01,2013-01-30 03:46:00,
2013-01-29 20:51:00,28.4,10.3,29.85,North,0,6.3,6.3,46,0.00,,---,0.00,VWS V14.01,2013-01-30 03:51:00,
2013-01-29 20:56:00,28.4,10.8,29.85,NNE,22,8.3,8.3,47,0.00,,---,0.00,VWS V14.01,2013-01-30 03:56:00,
2013-01-29 21:01:00,28.4,10.8,29.85,NNE,22,4.5,4.5,47,0.00,,---,0.00,VWS V14.01,2013-01-30 04:01:00,
2013-01-29 21:06:00,28.3,11.1,29.85,NNW,338,4.0,4.0,48,0.00,,---,0.00,VWS V14.01,2013-01-30 04:06:00,
2013-01-29 21:11:00,28.3,11.1,29.85,North,0,10.1,10.1,48,0.00,,---,0.00,VWS V14.01,2013-01-30 04:11:00,
2013-01-29 21:16:00,28.3,11.1,29.85,NE,45,9.2,9.2,48,0.00,,---,0.00,VWS V14.01,2013-01-30 04:16:00,
2013-01-29 21:21:00,28.1,10.9,29.85,NNE,22,5.4,5.4,48,0.00,,---,0.00,VWS V14.01,2013-01-30 04:21:00,
2013-01-29 21:26:00,28.1,11.4,29.85,North,0,2.7,2.7,49,0.00,,---,0.00,VWS V14.01,2013-01-30 04:26:00,
2013-01-29 21:31:00,27.9,11.2,29.86,NNW,338,6.3,6.3,49,0.00,,---,0.00,VWS V14.01,2013-01-30 04:31:00,
2013-01-29 21:36:00,27.9,11.2,29.86,WNW,292,6.5,6.5,49,0.00,,---,0.00,VWS V14.01,2013-01-30 04:36:00,
2013-01-29 21:41:00,27.7,11.5,29.86,NNW,338,4.9,4.9,50,0.00,,---,0.00,VWS V14.01,2013-01-30 04:41:00,
2013-01-29 21:46:00,27.7,11.5,29.86,NNE,22,5.4,5.4,50,0.00,,---,0.00,VWS V14.01,2013-01-30 04:46:00,
2013-01-29 21:51:00,27.7,11.9,29.86,NNE,22,5.1,5.1,51,0.00,,---,0.00,VWS V14.01,2013-01-30 04:51:00,
2013-01-29 21:56:00,27.7,11.9,29.86,North,0,2.2,2.2,51,0.00,,---,0.00,VWS V14.01,2013-01-30 04:56:00,
2013-01-29 22:00:00,27.7,11.9,29.86,NW,315,4.0,4.0,51,0.00,,---,0.00,VWS V14.01,2013-01-30 05:00:00,
2013-01-29 22:02:00,27.7,11.9,29.87,NNE,22,10.7,10.7,51,0.00,,---,0.00,VWS V14.01,2013-01-30 05:02:00,
2013-01-29 22:03:00,27.7,11.9,29.86,NNW,338,4.3,4.3,51,0.00,,---,0.00,VWS V14.01,2013-01-30 05:03:00,
2013-01-29 22:08:00,27.7,11.9,29.87,North,0,8.3,8.3,51,0.00,,---,0.00,VWS V14.01,2013-01-30 05:08:00,
2013-01-29 22:13:00,27.5,11.8,29.87,NNE,22,1.6,1.6,51,0.00,,---,0.00,VWS V14.01,2013-01-30 05:13:00,
2013-01-29 22:18:00,27.5,12.2,29.87,NW,315,7.6,7.6,52,0.00,,---,0.00,VWS V14.01,2013-01-30 05:18:00,
2013-01-29 22:23:00,27.5,12.2,29.87,NW,315,4.7,4.7,52,0.00,,---,0.00,VWS V14.01,2013-01-30 05:23:00,
2013-01-29 22:28:00,27.5,12.2,29.87,NW,315,3.4,3.4,52,0.00,,---,0.00,VWS V14.01,2013-01-30 05:28:00,
2013-01-29 22:33:00,27.4,12.1,29.87,NW,315,3.8,3.8,52,0.00,,---,0.00,VWS V14.01,2013-01-30 05:33:00,
2013-01-29 22:38:00,27.4,12.5,29.87,NW,315,5.4,5.4,53,0.00,,---,0.00,VWS V14.01,2013-01-30 05:38:00,
2013-01-29 22:43:00,27.2,12.4,29.88,NNW,338,5.1,5.1,53,0.00,,---,0.00,VWS V14.01,2013-01-30 05:43:00,
2013-01-29 22:48:00,27.0,12.6,29.88,NW,315,6.5,6.5,54,0.00,,---,0.00,VWS V14.01,2013-01-30 05:48:00,
2013-01-29 22:53:00,27.0,12.6,29.88,NNE,22,0.7,0.7,54,0.00,,---,0.00,VWS V14.01,2013-01-30 05:53:00,
2013-01-29 22:58:00,27.0,13.0,29.88,NW,315,6.5,6.5,55,0.00,,---,0.00,VWS V14.01,2013-01-30 05:58:00,
2013-01-29 23:03:00,27.0,13.4,29.89,NW,315,4.0,4.0,56,0.00,,---,0.00,VWS V14.01,2013-01-30 06:03:00,
2013-01-29 23:08:00,26.8,13.2,29.89,NNW,338,8.5,8.5,56,0.00,,---,0.00,VWS V14.01,2013-01-30 06:08:00,
2013-01-29 23:13:00,26.6,13.4,29.89,North,0,1.8,4.3,57,0.00,,---,0.00,VWS V14.01,2013-01-30 06:13:00,
2013-01-29 23:18:00,26.6,13.8,29.89,NNW,338,4.5,4.5,58,0.00,,---,0.00,VWS V14.01,2013-01-30 06:18:00,
2013-01-29 23:23:00,26.5,13.7,29.89,NNW,338,1.8,1.8,58,0.00,,---,0.00,VWS V14.01,2013-01-30 06:23:00,
2013-01-29 23:28:00,26.3,13.9,29.89,North,0,2.5,2.5,59,0.00,,---,0.00,VWS V14.01,2013-01-30 06:28:00,
2013-01-29 23:33:00,26.5,14.5,29.90,NW,315,3.1,3.1,60,0.00,,---,0.00,VWS V14.01,2013-01-30 06:33:00,
2013-01-29 23:38:00,26.5,14.5,29.90,North,0,4.3,4.3,60,0.00,,---,0.00,VWS V14.01,2013-01-30 06:38:00,
2013-01-29 23:43:00,26.3,14.3,29.90,NW,315,10.7,10.7,60,0.00,,---,0.00,VWS V14.01,2013-01-30 06:43:00,
2013-01-29 23:48:00,26.3,14.7,29.91,NNE,22,5.6,5.6,61,0.00,,---,0.00,VWS V14.01,2013-01-30 06:48:00,
2013-01-29 23:53:00,26.5,14.9,29.91,NNE,22,3.4,3.4,61,0.00,,---,0.00,VWS V14.01,2013-01-30 06:53:00,
2013-01-29 23:58:00,26.5,14.5,29.91,NE,45,0.2,0.2,60,0.00,,---,0.00,VWS V14.01,2013-01-30 06:58:00,